createdAt,value
2018-05-03T00:00:56.278Z,81.92
2018-05-03T00:01:56.376Z,81.73
2018-05-03T00:02:56.272Z,83.25
2018-05-03T00:03:56.269Z,82.20
2018-05-03T00:04:56.267Z,81.92
2018-05-03T00:05:56.261Z,82.30
2018-05-03T00:06:56.258Z,83.16
2018-05-03T00:07:56.258Z,82.20
2018-05-03T00:08:56.254Z,82.59
2018-05-03T00:09:56.253Z,83.06
2018-05-03T00:10:56.248Z,82.49
2018-05-03T00:11:56.246Z,83.06
2018-05-03T00:12:56.244Z,82.87
2018-05-03T00:13:56.241Z,82.78
2018-05-03T00:14:56.239Z,83.06
2018-05-03T00:15:56.236Z,82.30
2018-05-03T00:16:56.233Z,83.25
2018-05-03T00:17:56.230Z,82.82
2018-05-03T00:18:56.225Z,81.92
2018-05-03T00:19:56.224Z,83.25
2018-05-03T00:20:56.225Z,82.49
2018-05-03T00:21:56.222Z,82.34
2018-05-03T00:22:56.216Z,82.20
2018-05-03T00:23:56.213Z,83.06
2018-05-03T00:24:56.210Z,83.64
2018-05-03T00:25:56.209Z,82.97
2018-05-03T00:26:56.204Z,82.59
2018-05-03T00:27:56.202Z,83.73
2018-05-03T00:28:56.199Z,83.44
2018-05-03T00:29:56.195Z,83.06
2018-05-03T00:30:56.192Z,82.87
2018-05-03T00:31:56.191Z,83.06
2018-05-03T00:32:56.188Z,83.35
2018-05-03T00:33:56.185Z,82.30
2018-05-03T00:34:56.178Z,82.49
2018-05-03T00:35:56.181Z,82.49
2018-05-03T00:36:56.178Z,83.25
2018-05-03T00:37:56.174Z,83.06
2018-05-03T00:38:56.171Z,83.35
2018-05-03T00:39:56.169Z,83.25
2018-05-03T00:40:56.164Z,83.16
2018-05-03T00:41:56.162Z,83.44
2018-05-03T00:42:56.158Z,83.44
2018-05-03T00:43:56.157Z,83.83
2018-05-03T00:44:56.158Z,83.16
2018-05-03T00:45:56.154Z,83.35
2018-05-03T00:46:56.147Z,83.44
2018-05-03T00:47:56.144Z,83.35
2018-05-03T00:48:56.194Z,83.64
2018-05-03T00:49:56.141Z,83.54
2018-05-03T00:50:56.135Z,83.25
2018-05-03T00:51:56.131Z,83.44
2018-05-03T00:52:56.133Z,82.59
2018-05-03T00:53:56.128Z,83.06
2018-05-03T00:54:56.122Z,82.59
2018-05-03T00:55:56.121Z,82.68
2018-05-03T00:56:56.118Z,82.97
2018-05-03T00:57:56.116Z,83.35
2018-05-03T00:58:56.112Z,82.87
2018-05-03T00:59:56.110Z,82.59
2018-05-03T01:00:56.106Z,82.87
2018-05-03T01:01:56.104Z,83.25
2018-05-03T01:02:56.101Z,82.78
2018-05-03T01:03:56.104Z,82.68
2018-05-03T01:04:56.093Z,82.68
2018-05-03T01:05:56.094Z,82.30
2018-05-03T01:06:56.089Z,82.20
2018-05-03T01:07:56.086Z,82.40
2018-05-03T01:08:56.084Z,82.40
2018-05-03T01:09:56.089Z,82.30
2018-05-03T01:10:56.081Z,82.97
2018-05-03T01:11:56.074Z,82.49
2018-05-03T01:12:56.071Z,82.78
2018-05-03T01:13:56.071Z,82.49
2018-05-03T01:14:56.066Z,82.34
2018-05-03T01:15:56.065Z,82.40
2018-05-03T01:16:56.061Z,82.49
2018-05-03T01:17:56.059Z,82.49
2018-05-03T01:18:56.062Z,82.49
2018-05-03T01:19:56.052Z,82.49
2018-05-03T01:20:56.052Z,82.49
2018-05-03T01:21:56.049Z,82.40
2018-05-03T01:22:56.044Z,82.30
2018-05-03T01:23:56.046Z,82.20
2018-05-03T01:24:56.042Z,82.49
2018-05-03T01:25:56.036Z,82.40
2018-05-03T01:26:56.037Z,82.01
2018-05-03T01:27:56.032Z,82.30
2018-05-03T01:28:56.030Z,82.40
2018-05-03T01:29:56.033Z,82.40
2018-05-03T01:30:56.023Z,82.53
2018-05-03T01:31:56.019Z,82.34
2018-05-03T01:32:56.017Z,82.53
2018-05-03T01:33:56.015Z,82.68
2018-05-03T01:34:56.013Z,82.34
2018-05-03T01:35:56.013Z,82.72
2018-05-03T01:36:56.004Z,81.86
2018-05-03T01:37:56.008Z,81.82
2018-05-03T01:38:56.003Z,82.20
2018-05-03T01:39:55.999Z,81.92
2018-05-03T01:40:55.996Z,81.92
2018-05-03T01:41:55.994Z,81.92
2018-05-03T01:42:55.990Z,81.73
2018-05-03T01:43:55.989Z,82.20
2018-05-03T01:44:55.986Z,82.01
2018-05-03T01:45:55.981Z,82.11
2018-05-03T01:46:55.979Z,82.01
2018-05-03T01:47:55.977Z,82.49
2018-05-03T01:48:55.976Z,82.59
2018-05-03T01:49:55.973Z,82.15
2018-05-03T01:50:55.970Z,81.82
2018-05-03T01:51:55.967Z,81.92
2018-05-03T01:52:55.965Z,81.63
2018-05-03T01:53:55.981Z,81.73
2018-05-03T01:54:55.959Z,81.35
2018-05-03T01:55:55.956Z,81.73
2018-05-03T01:56:55.954Z,81.73
2018-05-03T01:57:55.955Z,81.44
2018-05-03T01:58:55.949Z,81.25
2018-05-03T01:59:55.945Z,81.44
2018-05-03T02:00:55.942Z,81.63
2018-05-03T02:01:55.969Z,81.73
2018-05-03T02:02:55.937Z,82.11
2018-05-03T02:03:55.934Z,82.68
2018-05-03T02:04:55.932Z,82.59
2018-05-03T02:05:55.936Z,82.49
2018-05-03T02:06:55.927Z,82.49
2018-05-03T02:07:55.928Z,81.92
2018-05-03T02:08:55.920Z,81.92
2018-05-03T02:09:55.922Z,81.73
2018-05-03T02:10:55.915Z,82.11
2018-05-03T02:11:55.913Z,82.20
2018-05-03T02:12:55.909Z,82.20
2018-05-03T02:13:55.908Z,81.92
2018-05-03T02:14:55.903Z,81.63
2018-05-03T02:15:55.901Z,82.59
2018-05-03T02:16:55.898Z,82.20
2018-05-03T02:17:55.897Z,82.01
2018-05-03T02:18:55.893Z,82.30
2018-05-03T02:19:55.890Z,81.73
2018-05-03T02:20:55.888Z,81.73
2018-05-03T02:21:55.885Z,81.82
2018-05-03T02:22:55.881Z,81.82
2018-05-03T02:23:55.880Z,82.49
2018-05-03T02:24:55.876Z,82.59
2018-05-03T02:25:55.874Z,82.59
2018-05-03T02:26:55.873Z,82.87
2018-05-03T02:27:55.869Z,82.49
2018-05-03T02:28:55.870Z,82.68
2018-05-03T02:29:55.865Z,82.59
2018-05-03T02:30:55.859Z,82.49
2018-05-03T02:31:55.858Z,83.25
2018-05-03T02:32:55.854Z,82.30
2018-05-03T02:33:55.852Z,82.87
2018-05-03T02:34:55.850Z,82.59
2018-05-03T02:35:55.846Z,82.97
2018-05-03T02:36:55.843Z,83.25
2018-05-03T02:37:55.842Z,82.40
2018-05-03T02:38:55.841Z,82.78
2018-05-03T02:39:55.833Z,82.64
2018-05-03T02:40:55.833Z,82.45
2018-05-03T02:41:55.827Z,82.35
2018-05-03T02:42:55.821Z,82.87
2018-05-03T02:43:55.821Z,82.59
2018-05-03T02:44:55.818Z,82.30
2018-05-03T02:45:55.814Z,82.35
2018-05-03T02:46:55.811Z,82.83
2018-05-03T02:47:55.808Z,82.45
2018-05-03T02:48:55.809Z,81.49
2018-05-03T02:49:55.800Z,82.45
2018-05-03T02:50:55.797Z,82.26
2018-05-03T02:51:55.799Z,82.73
2018-05-03T02:52:55.797Z,82.26
2018-05-03T02:53:55.788Z,82.26
2018-05-03T02:54:55.789Z,82.73
2018-05-03T02:55:55.784Z,82.64
2018-05-03T02:56:55.779Z,82.26
2018-05-03T02:57:55.809Z,82.17
2018-05-03T02:58:55.771Z,82.45
2018-05-03T02:59:55.772Z,82.45
2018-05-03T03:00:55.771Z,82.26
2018-05-03T03:01:55.760Z,81.59
2018-05-03T03:02:55.759Z,82.54
2018-05-03T03:03:55.760Z,81.78
2018-05-03T03:04:55.752Z,81.59
2018-05-03T03:05:55.747Z,81.78
2018-05-03T03:06:55.752Z,81.59
2018-05-03T03:07:55.746Z,81.78
2018-05-03T03:08:55.738Z,81.68
2018-05-03T03:09:55.735Z,81.88
2018-05-03T03:10:55.728Z,81.97
2018-05-03T03:11:55.731Z,81.49
2018-05-03T03:12:55.725Z,81.59
2018-05-03T03:13:55.721Z,81.49
2018-05-03T03:14:55.715Z,81.78
2018-05-03T03:15:55.718Z,81.21
2018-05-03T03:16:55.710Z,81.21
2018-05-03T03:17:55.706Z,81.59
2018-05-03T03:18:55.703Z,81.30
2018-05-03T03:19:55.703Z,81.21
2018-05-03T03:20:55.697Z,81.30
2018-05-03T03:21:55.751Z,81.97
2018-05-03T03:22:55.691Z,81.78
2018-05-03T03:23:55.693Z,81.59
2018-05-03T03:24:55.689Z,81.78
2018-05-03T03:25:55.681Z,81.02
2018-05-03T03:26:55.683Z,81.21
2018-05-03T03:27:55.675Z,80.92
2018-05-03T03:28:55.673Z,81.02
2018-05-03T03:29:55.669Z,81.02
2018-05-03T03:30:55.665Z,80.83
2018-05-03T03:31:55.665Z,81.02
2018-05-03T03:32:55.659Z,80.73
2018-05-03T03:33:55.657Z,81.02
2018-05-03T03:34:55.652Z,80.83
2018-05-03T03:35:55.650Z,80.92
2018-05-03T03:36:55.646Z,80.73
2018-05-03T03:37:55.645Z,80.64
2018-05-03T03:38:55.645Z,81.02
2018-05-03T03:39:55.641Z,80.92
2018-05-03T03:40:55.633Z,80.83
2018-05-03T03:41:55.631Z,81.02
2018-05-03T03:42:55.625Z,80.64
2018-05-03T03:43:55.630Z,81.30
2018-05-03T03:44:55.618Z,80.44
2018-05-03T03:45:55.618Z,80.41
2018-05-03T03:46:55.615Z,80.12
2018-05-03T03:47:55.614Z,80.31
2018-05-03T03:48:55.607Z,80.41
2018-05-03T03:49:55.604Z,80.79
2018-05-03T03:50:55.602Z,80.79
2018-05-03T03:51:55.598Z,80.31
2018-05-03T03:52:55.593Z,80.69
2018-05-03T03:53:55.596Z,80.31
2018-05-03T03:54:55.587Z,80.22
2018-05-03T03:55:55.585Z,80.60
2018-05-03T03:56:55.579Z,80.31
2018-05-03T03:57:55.577Z,79.74
2018-05-03T03:58:55.573Z,79.74
2018-05-03T03:59:55.573Z,80.31
2018-05-03T04:00:55.568Z,79.83
2018-05-03T04:01:55.564Z,80.31
2018-05-03T04:02:55.559Z,80.31
2018-05-03T04:03:55.557Z,80.60
2018-05-03T04:04:55.556Z,80.31
2018-05-03T04:05:55.551Z,80.22
2018-05-03T04:06:55.547Z,80.50
2018-05-03T04:07:55.545Z,80.31
2018-05-03T04:08:55.541Z,80.12
2018-05-03T04:09:55.541Z,79.74
2018-05-03T04:10:55.534Z,79.46
2018-05-03T04:11:55.535Z,79.83
2018-05-03T04:12:55.528Z,79.74
2018-05-03T04:13:55.526Z,80.12
2018-05-03T04:14:55.521Z,80.79
2018-05-03T04:15:55.516Z,80.60
2018-05-03T04:16:55.515Z,80.31
2018-05-03T04:17:55.515Z,80.12
2018-05-03T04:18:55.509Z,80.73
2018-05-03T04:19:55.507Z,80.92
2018-05-03T04:20:55.502Z,80.26
2018-05-03T04:21:55.501Z,80.35
2018-05-03T04:22:55.495Z,80.41
2018-05-03T04:23:55.492Z,80.16
2018-05-03T04:24:55.490Z,80.35
2018-05-03T04:25:55.487Z,81.02
2018-05-03T04:26:55.481Z,81.02
2018-05-03T04:27:55.478Z,80.92
2018-05-03T04:28:55.475Z,81.02
2018-05-03T04:29:55.495Z,80.83
2018-05-03T04:30:55.470Z,81.02
2018-05-03T04:31:55.467Z,81.21
2018-05-03T04:32:55.462Z,80.73
2018-05-03T04:33:55.495Z,81.54
2018-05-03T04:34:55.476Z,80.87
2018-05-03T04:35:55.453Z,80.96
2018-05-03T04:36:55.454Z,80.87
2018-05-03T04:37:55.449Z,80.96
2018-05-03T04:38:55.443Z,81.15
2018-05-03T04:39:55.448Z,81.82
2018-05-03T04:40:55.439Z,81.82
2018-05-03T04:41:55.435Z,81.82
2018-05-03T04:42:55.430Z,81.15
2018-05-03T04:43:55.429Z,81.25
2018-05-03T04:44:55.426Z,81.25
2018-05-03T04:45:55.424Z,81.06
2018-05-03T04:46:55.507Z,81.35
2018-05-03T04:47:55.418Z,81.63
2018-05-03T04:48:55.416Z,81.77
2018-05-03T04:49:55.412Z,81.10
2018-05-03T04:50:55.412Z,80.87
2018-05-03T04:51:55.405Z,81.10
2018-05-03T04:52:55.401Z,81.20
2018-05-03T04:53:55.401Z,81.29
2018-05-03T04:54:55.399Z,81.48
2018-05-03T04:55:55.394Z,81.10
2018-05-03T04:56:55.394Z,80.91
2018-05-03T04:57:55.387Z,81.67
2018-05-03T04:58:55.385Z,80.62
2018-05-03T04:59:55.382Z,81.96
2018-05-03T05:00:55.381Z,81.20
2018-05-03T05:01:55.378Z,81.48
2018-05-03T05:02:55.377Z,81.67
2018-05-03T05:03:55.369Z,81.77
2018-05-03T05:04:55.368Z,81.86
2018-05-03T05:05:55.365Z,82.06
2018-05-03T05:06:55.362Z,81.67
2018-05-03T05:07:55.360Z,82.06
2018-05-03T05:08:55.358Z,82.15
2018-05-03T05:09:55.352Z,82.15
2018-05-03T05:10:55.350Z,82.06
2018-05-03T05:11:55.348Z,81.67
2018-05-03T05:12:55.347Z,81.86
2018-05-03T05:13:55.344Z,81.33
2018-05-03T05:14:55.339Z,81.52
2018-05-03T05:15:55.338Z,81.71
2018-05-03T05:16:55.335Z,82.00
2018-05-03T05:17:55.418Z,82.86
2018-05-03T05:18:55.330Z,81.81
2018-05-03T05:19:55.328Z,81.71
2018-05-03T05:20:55.400Z,82.09
2018-05-03T05:21:55.323Z,82.48
2018-05-03T05:22:55.319Z,82.67
2018-05-03T05:23:55.316Z,82.57
2018-05-03T05:24:55.316Z,82.57
2018-05-03T05:25:55.314Z,82.57
2018-05-03T05:26:55.309Z,82.76
2018-05-03T05:27:55.305Z,82.57
2018-05-03T05:28:55.302Z,82.61
2018-05-03T05:29:55.303Z,82.86
2018-05-03T05:30:55.304Z,82.90
2018-05-03T05:31:55.295Z,82.81
2018-05-03T05:32:55.295Z,82.61
2018-05-03T05:33:55.293Z,82.75
2018-05-03T05:34:55.288Z,83.04
2018-05-03T05:35:55.286Z,82.46
2018-05-03T05:36:55.287Z,83.13
2018-05-03T05:37:55.284Z,83.61
2018-05-03T05:38:55.334Z,82.65
2018-05-03T05:39:55.277Z,83.70
2018-05-03T05:40:55.280Z,84.19
2018-05-03T05:41:55.275Z,83.61
2018-05-03T05:42:55.277Z,83.13
2018-05-03T05:43:55.272Z,82.84
2018-05-03T05:44:55.280Z,83.13
2018-05-03T05:45:55.267Z,82.56
2018-05-03T05:46:55.263Z,83.61
2018-05-03T05:47:55.260Z,83.13
2018-05-03T05:48:55.262Z,84.23
2018-05-03T05:49:55.259Z,83.65
2018-05-03T05:50:55.258Z,83.65
2018-05-03T05:51:55.261Z,84.03
2018-05-03T05:52:55.251Z,83.17
2018-05-03T05:53:55.249Z,83.46
2018-05-03T05:54:55.250Z,84.17
2018-05-03T05:55:55.245Z,83.40
2018-05-03T05:56:55.244Z,84.23
2018-05-03T05:57:55.242Z,83.84
2018-05-03T05:58:55.313Z,84.13
2018-05-03T05:59:55.239Z,83.46
2018-05-03T06:00:55.240Z,83.94
2018-05-03T06:01:55.241Z,83.37
2018-05-03T06:02:55.231Z,84.70
2018-05-03T06:03:55.230Z,83.99
2018-05-03T06:04:55.243Z,84.09
2018-05-03T06:05:55.226Z,83.99
2018-05-03T06:06:55.223Z,83.99
2018-05-03T06:07:55.226Z,84.09
2018-05-03T06:08:55.222Z,83.61
2018-05-03T06:09:55.287Z,84.76
2018-05-03T06:10:55.220Z,83.99
2018-05-03T06:11:55.216Z,83.99
2018-05-03T06:12:55.214Z,84.09
2018-05-03T06:13:55.219Z,84.09
2018-05-03T06:14:55.213Z,83.75
2018-05-03T06:15:55.214Z,84.80
2018-05-03T06:16:55.208Z,84.03
2018-05-03T06:17:55.207Z,84.23
2018-05-03T06:18:55.202Z,83.94
2018-05-03T06:19:55.202Z,84.03
2018-05-03T06:20:55.204Z,83.46
2018-05-03T06:21:55.199Z,84.13
2018-05-03T06:22:55.203Z,84.61
2018-05-03T06:23:55.199Z,84.13
2018-05-03T06:24:55.196Z,84.42
2018-05-03T06:25:55.209Z,84.61
2018-05-03T06:26:55.192Z,84.03
2018-05-03T06:27:55.190Z,84.75
2018-05-03T06:28:55.192Z,83.94
2018-05-03T06:29:55.187Z,83.50
2018-05-03T06:30:55.187Z,84.75
2018-05-03T06:31:55.229Z,84.17
2018-05-03T06:32:55.187Z,85.51
2018-05-03T06:33:55.182Z,84.22
2018-05-03T06:34:55.180Z,84.88
2018-05-03T06:35:55.215Z,84.02
2018-05-03T06:36:55.178Z,84.12
2018-05-03T06:37:55.180Z,85.17
2018-05-03T06:38:55.259Z,84.02
2018-05-03T06:39:55.174Z,83.83
2018-05-03T06:40:55.174Z,83.54
2018-05-03T06:41:55.181Z,84.69
2018-05-03T06:42:55.171Z,84.31
2018-05-03T06:43:55.169Z,84.12
2018-05-03T06:44:55.170Z,84.02
2018-05-03T06:45:55.173Z,84.55
2018-05-03T06:46:55.167Z,83.98
2018-05-03T06:47:55.168Z,84.36
2018-05-03T06:48:55.167Z,84.65
2018-05-03T06:49:55.163Z,83.79
2018-05-03T06:50:55.162Z,83.98
2018-05-03T06:51:55.163Z,84.84
2018-05-03T06:52:55.160Z,84.98
2018-05-03T06:53:55.162Z,84.59
2018-05-03T06:54:55.162Z,84.88
2018-05-03T06:55:55.156Z,84.12
2018-05-03T06:56:55.151Z,84.59
2018-05-03T06:57:55.154Z,84.59
2018-05-03T06:58:55.154Z,85.08
2018-05-03T06:59:55.152Z,84.79
2018-05-03T07:00:55.150Z,84.08
2018-05-03T07:01:55.151Z,84.94
2018-05-03T07:02:55.148Z,84.94
2018-05-03T07:03:55.224Z,84.84
2018-05-03T07:04:55.146Z,85.80
2018-05-03T07:05:55.141Z,85.41
2018-05-03T07:06:55.141Z,84.75
2018-05-03T07:07:55.143Z,85.22
2018-05-03T07:08:55.145Z,85.51
2018-05-03T07:09:55.229Z,85.03
2018-05-03T07:10:55.141Z,84.17
2018-05-03T07:11:55.137Z,85.94
2018-05-03T07:12:55.136Z,84.80
2018-05-03T07:13:55.137Z,85.94
2018-05-03T07:14:55.132Z,85.51
2018-05-03T07:15:55.140Z,85.09
2018-05-03T07:16:55.131Z,85.03
2018-05-03T07:17:55.137Z,85.41
2018-05-03T07:18:55.129Z,85.66
2018-05-03T07:19:55.126Z,84.80
2018-05-03T07:20:55.132Z,86.04
2018-05-03T07:21:55.123Z,85.66
2018-05-03T07:22:55.121Z,84.99
2018-05-03T07:23:55.185Z,85.99
2018-05-03T07:24:55.119Z,85.13
2018-05-03T07:25:55.118Z,85.32
2018-05-03T07:26:55.117Z,85.41
2018-05-03T07:27:55.113Z,85.75
2018-05-03T07:28:55.115Z,86.04
2018-05-03T07:29:56.618Z,85.17
2018-05-03T07:30:55.111Z,85.55
2018-05-03T07:31:55.109Z,84.98
2018-05-03T07:32:55.108Z,84.69
2018-05-03T07:33:55.114Z,85.84
2018-05-03T07:34:55.109Z,84.74
2018-05-03T07:35:55.103Z,84.64
2018-05-03T07:36:55.103Z,84.74
2018-05-03T07:37:55.098Z,84.68
2018-05-03T07:38:55.107Z,84.01
2018-05-03T07:39:55.102Z,84.78
2018-05-03T07:40:55.109Z,85.16
2018-05-03T07:41:55.097Z,84.78
2018-05-03T07:42:55.100Z,84.68
2018-05-03T07:43:55.096Z,84.68
2018-05-03T07:44:55.097Z,84.58
2018-05-03T07:45:55.097Z,84.30
2018-05-03T07:46:55.096Z,84.39
2018-05-03T07:47:55.096Z,84.11
2018-05-03T07:48:55.091Z,84.68
2018-05-03T07:49:55.094Z,84.58
2018-05-03T07:50:55.093Z,84.68
2018-05-03T07:51:55.093Z,84.39
2018-05-03T07:52:55.110Z,84.82
2018-05-03T07:53:55.104Z,84.49
2018-05-03T07:54:55.091Z,84.05
2018-05-03T07:55:55.091Z,84.39
2018-05-03T07:56:55.093Z,84.63
2018-05-03T07:57:55.092Z,84.53
2018-05-03T07:58:55.094Z,84.67
2018-05-03T07:59:55.089Z,83.81
2018-05-03T08:00:55.093Z,82.37
2018-05-03T08:01:55.098Z,81.41
2018-05-03T08:02:55.094Z,82.27
2018-05-03T08:03:55.092Z,81.89
2018-05-03T08:04:55.128Z,81.22
2018-05-03T08:05:55.099Z,81.12
2018-05-03T08:06:55.111Z,80.55
2018-05-03T08:07:55.108Z,81.12
2018-05-03T08:08:55.119Z,82.60
2018-05-03T08:09:55.118Z,83.47
2018-05-03T08:10:55.124Z,82.03
2018-05-03T08:11:55.143Z,82.21
2018-05-03T08:12:55.148Z,81.68
2018-05-03T08:13:55.150Z,82.35
2018-05-03T08:14:55.154Z,79.72
2018-05-03T08:15:55.159Z,79.28
2018-05-03T08:16:55.175Z,79.32
2018-05-03T08:17:55.169Z,76.92
2018-05-03T08:18:55.171Z,76.15
2018-05-03T08:19:55.175Z,74.65
2018-05-03T08:20:55.182Z,75.21
2018-05-03T08:21:55.188Z,66.94
2018-05-03T08:22:55.190Z,64.12
2018-05-03T08:23:55.196Z,63.67
2018-05-03T08:24:55.201Z,61.16
2018-05-03T08:25:55.208Z,58.92
2018-05-03T08:26:55.214Z,56.70
2018-05-03T08:27:55.223Z,56.90
2018-05-03T08:28:55.225Z,56.47
2018-05-03T08:29:55.231Z,54.61
2018-05-03T08:30:55.239Z,54.09
2018-05-03T08:31:55.341Z,52.50
2018-05-03T08:32:55.250Z,50.50
2018-05-03T08:33:55.255Z,49.95
2018-05-03T08:34:55.260Z,48.81
2018-05-03T08:35:55.264Z,48.47
2018-05-03T08:36:55.271Z,45.37
2018-05-03T08:37:55.275Z,44.50
2018-05-03T08:38:55.255Z,44.81
2018-05-03T08:39:55.261Z,44.13
2018-05-03T08:40:55.271Z,43.68
2018-05-03T08:41:55.269Z,42.78
2018-05-03T08:42:55.281Z,44.63
2018-05-03T08:43:55.289Z,47.58
2018-05-03T08:44:55.286Z,49.84
2018-05-03T08:45:55.293Z,49.27
2018-05-03T08:46:55.294Z,49.48
2018-05-03T08:47:55.300Z,47.85
2018-05-03T08:48:55.306Z,49.48
2018-05-03T08:49:55.331Z,47.87
2018-05-03T08:50:55.317Z,47.22
2018-05-03T08:51:55.323Z,46.64
2018-05-03T08:52:55.331Z,45.40
2018-05-03T08:53:55.333Z,45.01
2018-05-03T08:54:55.335Z,44.07
2018-05-03T08:55:55.339Z,43.71
2018-05-03T08:56:55.354Z,43.49
2018-05-03T08:57:55.347Z,43.68
2018-05-03T08:58:55.336Z,44.68
2018-05-03T08:59:55.343Z,47.00
2018-05-03T09:00:55.362Z,47.82
2018-05-03T09:01:55.405Z,48.49
2018-05-03T09:02:55.358Z,48.88
2018-05-03T09:03:55.360Z,49.73
2018-05-03T09:04:55.362Z,50.98
2018-05-03T09:05:55.368Z,52.40
2018-05-03T09:06:55.370Z,54.20
2018-05-03T09:07:55.424Z,54.56
2018-05-03T09:08:55.394Z,55.43
2018-05-03T09:09:55.403Z,56.77
2018-05-03T09:10:55.354Z,58.67
2018-05-03T09:11:55.361Z,58.57
2018-05-03T09:12:55.362Z,60.11
2018-05-03T09:13:55.381Z,61.46
2018-05-03T09:14:55.370Z,66.36
2018-05-03T09:15:55.374Z,62.19
2018-05-03T09:16:55.378Z,64.31
2018-05-03T09:17:55.383Z,66.39
2018-05-03T09:18:55.387Z,68.60
2018-05-03T09:19:55.391Z,63.70
2018-05-03T09:20:55.396Z,61.40
2018-05-03T09:21:55.399Z,62.99
2018-05-03T09:22:55.402Z,61.94
2018-05-03T09:23:55.406Z,61.46
2018-05-03T09:24:55.410Z,61.46
2018-05-03T09:25:55.413Z,61.75
2018-05-03T09:26:55.419Z,60.60
2018-05-03T09:27:55.421Z,61.36
2018-05-03T09:28:55.424Z,62.99
2018-05-03T09:29:55.428Z,63.86
2018-05-03T09:30:55.432Z,64.92
2018-05-03T09:31:55.435Z,66.26
2018-05-03T09:32:55.439Z,66.36
2018-05-03T09:33:55.294Z,67.90
2018-05-03T09:34:55.299Z,68.66
2018-05-03T09:35:55.298Z,61.27
2018-05-03T09:36:55.297Z,58.00
2018-05-03T09:37:55.297Z,58.39
2018-05-03T09:38:55.297Z,58.48
2018-05-03T09:39:55.297Z,58.58
2018-05-03T09:40:55.302Z,56.46
2018-05-03T09:41:55.300Z,58.70
2018-05-03T09:42:55.306Z,57.75
2018-05-03T09:43:55.302Z,58.51
2018-05-03T09:44:55.305Z,58.13
2018-05-03T09:45:55.305Z,62.55
2018-05-03T09:46:55.306Z,60.63
2018-05-03T09:47:55.307Z,60.24
2018-05-03T09:48:55.305Z,58.80
2018-05-03T09:49:55.308Z,57.77
2018-05-03T09:50:55.309Z,58.22
2018-05-03T09:51:55.353Z,56.71
2018-05-03T09:52:55.311Z,56.21
2018-05-03T09:53:55.312Z,57.45
2018-05-03T09:54:55.334Z,58.06
2018-05-03T09:55:55.316Z,58.51
2018-05-03T09:56:55.319Z,59.31
2018-05-03T09:57:55.319Z,59.69
2018-05-03T09:58:55.317Z,57.58
2018-05-03T09:59:55.318Z,59.02
2018-05-03T10:00:55.319Z,58.92
2018-05-03T10:01:55.324Z,58.54
2018-05-03T10:02:55.327Z,59.50
2018-05-03T10:03:55.327Z,59.69
2018-05-03T10:04:55.405Z,59.99
2018-05-03T10:05:55.323Z,59.79
2018-05-03T10:06:55.330Z,58.06
2018-05-03T10:07:55.331Z,57.00
2018-05-03T10:08:55.357Z,57.10
2018-05-03T10:09:55.327Z,57.97
2018-05-03T10:10:55.329Z,58.15
2018-05-03T10:11:55.334Z,56.14
2018-05-03T10:12:55.333Z,54.99
2018-05-03T10:13:55.335Z,53.64
2018-05-03T10:14:55.331Z,56.62
2018-05-03T10:15:55.335Z,56.52
2018-05-03T10:16:55.339Z,55.40
2018-05-03T10:17:55.342Z,54.41
2018-05-03T10:18:55.335Z,54.43
2018-05-03T10:19:55.338Z,54.72
2018-05-03T10:20:55.342Z,54.43
2018-05-03T10:21:55.345Z,53.86
2018-05-03T10:22:55.346Z,53.78
2018-05-03T10:23:55.347Z,53.09
2018-05-03T10:24:55.350Z,53.47
2018-05-03T10:25:55.352Z,54.82
2018-05-03T10:26:55.351Z,55.04
2018-05-03T10:27:55.367Z,54.27
2018-05-03T10:28:55.355Z,55.62
2018-05-03T10:29:55.441Z,55.62
2018-05-03T10:30:55.356Z,53.88
2018-05-03T10:31:55.357Z,53.59
2018-05-03T10:32:55.362Z,55.68
2018-05-03T10:33:55.370Z,55.68
2018-05-03T10:34:55.360Z,53.47
2018-05-03T10:35:55.404Z,53.57
2018-05-03T10:36:55.373Z,53.28
2018-05-03T10:37:55.369Z,54.02
2018-05-03T10:38:55.373Z,53.92
2018-05-03T10:39:55.368Z,54.31
2018-05-03T10:40:55.373Z,54.50
2018-05-03T10:41:55.446Z,55.49
2018-05-03T10:42:55.384Z,55.88
2018-05-03T10:43:55.381Z,55.59
2018-05-03T10:44:55.378Z,54.85
2018-05-03T10:45:55.437Z,53.69
2018-05-03T10:46:55.773Z,52.42
2018-05-03T10:47:55.444Z,51.45
2018-05-03T10:48:55.393Z,52.42
2018-05-03T10:49:55.393Z,53.86
2018-05-03T10:50:55.393Z,55.11
2018-05-03T10:51:55.389Z,54.36
2018-05-03T10:52:55.392Z,54.36
2018-05-03T10:53:55.391Z,53.09
2018-05-03T10:54:55.394Z,53.38
2018-05-03T10:55:55.396Z,53.47
2018-05-03T10:56:55.397Z,54.94
2018-05-03T10:57:55.399Z,54.17
2018-05-03T10:58:55.399Z,55.04
2018-05-03T10:59:55.474Z,54.75
2018-05-03T11:00:55.409Z,53.40
2018-05-03T11:01:55.407Z,53.02
2018-05-03T11:02:55.413Z,53.05
2018-05-03T11:03:55.408Z,52.25
2018-05-03T11:04:55.408Z,51.79
2018-05-03T11:05:55.416Z,51.48
2018-05-03T11:06:55.412Z,51.57
2018-05-03T11:07:55.412Z,51.45
2018-05-03T11:08:55.418Z,51.35
2018-05-03T11:09:55.416Z,52.54
2018-05-03T11:10:55.421Z,51.57
2018-05-03T11:11:55.419Z,50.71
2018-05-03T11:12:55.421Z,50.81
2018-05-03T11:13:55.424Z,52.44
2018-05-03T11:14:55.423Z,51.57
2018-05-03T11:15:55.426Z,51.38
2018-05-03T11:16:55.430Z,52.15
2018-05-03T11:17:55.430Z,51.38
2018-05-03T11:18:55.427Z,51.57
2018-05-03T11:19:55.433Z,51.67
2018-05-03T11:20:55.436Z,52.06
2018-05-03T11:21:55.514Z,52.44
2018-05-03T11:22:55.437Z,51.48
2018-05-03T11:23:55.437Z,51.48
2018-05-03T11:24:55.441Z,50.32
2018-05-03T11:25:55.463Z,50.51
2018-05-03T11:26:55.442Z,51.48
2018-05-03T11:27:55.448Z,51.48
2018-05-03T11:28:55.525Z,52.92
2018-05-03T11:29:55.454Z,52.22
2018-05-03T11:30:55.448Z,52.42
2018-05-03T11:31:55.451Z,53.28
2018-05-03T11:32:55.452Z,53.47
2018-05-03T11:33:55.457Z,54.08
2018-05-03T11:34:55.458Z,53.40
2018-05-03T11:35:55.459Z,52.15
2018-05-03T11:36:55.493Z,52.15
2018-05-03T11:37:55.461Z,51.38
2018-05-03T11:38:55.462Z,51.48
2018-05-03T11:39:55.477Z,51.57
2018-05-03T11:40:55.468Z,52.37
2018-05-03T11:41:55.467Z,51.79
2018-05-03T11:42:55.469Z,51.12
2018-05-03T11:43:55.470Z,50.25
2018-05-03T11:44:55.475Z,50.06
2018-05-03T11:45:55.476Z,49.58
2018-05-03T11:46:55.476Z,49.94
2018-05-03T11:47:55.475Z,50.54
2018-05-03T11:48:55.481Z,49.46
2018-05-03T11:49:55.483Z,50.23
2018-05-03T11:50:55.499Z,50.51
2018-05-03T11:51:55.489Z,50.32
2018-05-03T11:52:55.487Z,50.32
2018-05-03T11:53:55.491Z,51.09
2018-05-03T11:54:55.490Z,49.87
2018-05-03T11:55:55.495Z,50.32
2018-05-03T11:56:55.498Z,50.90
2018-05-03T11:57:55.497Z,50.04
2018-05-03T11:58:55.500Z,49.74
2018-05-03T11:59:55.518Z,50.23
2018-05-03T12:00:55.501Z,50.61
2018-05-03T12:01:55.506Z,50.42
2018-05-03T12:02:55.508Z,50.71
2018-05-03T12:03:55.509Z,50.51
2018-05-03T12:04:55.511Z,51.38
2018-05-03T12:05:55.559Z,51.02
2018-05-03T12:06:55.515Z,50.45
2018-05-03T12:07:55.517Z,51.34
2018-05-03T12:08:55.568Z,50.45
2018-05-03T12:09:55.522Z,50.76
2018-05-03T12:10:55.522Z,50.09
2018-05-03T12:11:55.525Z,50.45
2018-05-03T12:12:55.528Z,50.04
2018-05-03T12:13:55.529Z,49.74
2018-05-03T12:14:55.529Z,50.13
2018-05-03T12:15:55.533Z,50.42
2018-05-03T12:16:55.535Z,50.81
2018-05-03T12:17:55.536Z,51.35
2018-05-03T12:18:55.538Z,51.45
2018-05-03T12:19:55.540Z,52.15
2018-05-03T12:20:55.544Z,51.57
2018-05-03T12:21:55.544Z,51.29
2018-05-03T12:22:55.545Z,52.25
2018-05-03T12:23:55.548Z,51.48
2018-05-03T12:24:55.550Z,51.38
2018-05-03T12:25:55.552Z,51.57
2018-05-03T12:26:55.554Z,52.25
2018-05-03T12:27:55.555Z,51.64
2018-05-03T12:28:55.560Z,51.55
2018-05-03T12:29:55.560Z,51.26
2018-05-03T12:30:55.561Z,52.12
2018-05-03T12:31:55.562Z,52.42
2018-05-03T12:32:55.570Z,52.34
2018-05-03T12:33:55.568Z,53.11
2018-05-03T12:34:55.630Z,53.31
2018-05-03T12:35:55.569Z,53.21
2018-05-03T12:36:55.571Z,54.27
2018-05-03T12:37:55.585Z,53.59
2018-05-03T12:38:55.577Z,55.04
2018-05-03T12:39:55.576Z,55.43
2018-05-03T12:40:55.579Z,56.20
2018-05-03T12:41:55.582Z,55.62
2018-05-03T12:42:55.581Z,55.52
2018-05-03T12:43:55.585Z,56.10
2018-05-03T12:44:55.588Z,56.10
2018-05-03T12:45:55.584Z,55.55
2018-05-03T12:46:55.590Z,55.65
2018-05-03T12:47:55.590Z,55.55
2018-05-03T12:48:55.596Z,54.78
2018-05-03T12:49:55.599Z,55.65
2018-05-03T12:50:55.657Z,55.07
2018-05-03T12:51:55.598Z,54.10
2018-05-03T12:52:55.616Z,54.08